sensor_id;sensor_type;location;lat;lon;timestamp;temperature;humidity
11700;DHT22;5906;51.660;6.674;2023-01-19T00:00:54;1.70;99.90
11700;DHT22;5906;51.660;6.674;2023-01-19T00:03:22;1.70;99.90
11700;DHT22;5906;51.660;6.674;2023-01-19T00:05:49;1.70;99.90
11700;DHT22;5906;51.660;6.674;2023-01-19T00:08:17;1.70;99.90
11700;DHT22;5906;51.660;6.674;2023-01-19T00:10:46;1.70;99.90
11700;DHT22;5906;51.660;6.674;2023-01-19T00:13:14;1.70;99.90
11700;DHT22;5906;51.660;6.674;2023-01-19T00:15:42;1.70;99.90
11700;DHT22;5906;51.660;6.674;2023-01-19T00:18:09;1.70;99.90
11700;DHT22;5906;51.660;6.674;2023-01-19T00:20:38;1.70;99.90
11700;DHT22;5906;51.660;6.674;2023-01-19T00:23:05;1.70;99.90
11700;DHT22;5906;51.660;6.674;2023-01-19T00:25:35;1.70;99.90
11700;DHT22;5906;51.660;6.674;2023-01-19T00:28:10;1.70;99.90
11700;DHT22;5906;51.660;6.674;2023-01-19T00:30:38;1.70;99.90
11700;DHT22;5906;51.660;6.674;2023-01-19T00:35:39;1.70;99.90
11700;DHT22;5906;51.660;6.674;2023-01-19T00:38:09;1.80;99.90
11700;DHT22;5906;51.660;6.674;2023-01-19T00:40:37;1.80;99.90
11700;DHT22;5906;51.660;6.674;2023-01-19T00:43:03;1.80;99.90
11700;DHT22;5906;51.660;6.674;2023-01-19T00:45:30;1.80;99.90
11700;DHT22;5906;51.660;6.674;2023-01-19T00:47:58;1.80;99.90
11700;DHT22;5906;51.660;6.674;2023-01-19T00:50:26;1.80;99.90
11700;DHT22;5906;51.660;6.674;2023-01-19T00:52:54;1.80;99.90
11700;DHT22;5906;51.660;6.674;2023-01-19T00:55:21;1.80;99.90
11700;DHT22;5906;51.660;6.674;2023-01-19T00:57:48;1.80;99.90
11700;DHT22;5906;51.660;6.674;2023-01-19T01:00:16;1.80;99.90
11700;DHT22;5906;51.660;6.674;2023-01-19T01:02:46;1.80;99.90
11700;DHT22;5906;51.660;6.674;2023-01-19T01:05:13;1.90;99.90
11700;DHT22;5906;51.660;6.674;2023-01-19T01:07:40;1.90;99.90
11700;DHT22;5906;51.660;6.674;2023-01-19T01:12:41;1.80;99.90
11700;DHT22;5906;51.660;6.674;2023-01-19T01:15:23;1.90;99.90
11700;DHT22;5906;51.660;6.674;2023-01-19T01:17:51;2.00;99.90
11700;DHT22;5906;51.660;6.674;2023-01-19T01:20:24;2.00;99.90
11700;DHT22;5906;51.660;6.674;2023-01-19T01:22:54;2.00;99.90
11700;DHT22;5906;51.660;6.674;2023-01-19T01:25:22;2.00;99.90
11700;DHT22;5906;51.660;6.674;2023-01-19T01:27:50;2.00;99.90
11700;DHT22;5906;51.660;6.674;2023-01-19T01:30:17;2.00;99.90
11700;DHT22;5906;51.660;6.674;2023-01-19T01:32:44;2.10;99.90
11700;DHT22;5906;51.660;6.674;2023-01-19T01:35:15;2.10;99.90
11700;DHT22;5906;51.660;6.674;2023-01-19T01:37:42;2.10;99.90
11700;DHT22;5906;51.660;6.674;2023-01-19T01:40:14;2.10;99.90
11700;DHT22;5906;51.660;6.674;2023-01-19T01:42:42;2.10;99.90
11700;DHT22;5906;51.660;6.674;2023-01-19T01:45:33;2.10;99.90
11700;DHT22;5906;51.660;6.674;2023-01-19T01:48:22;2.10;99.90
11700;DHT22;5906;51.660;6.674;2023-01-19T01:50:53;2.20;99.90
11700;DHT22;5906;51.660;6.674;2023-01-19T01:53:41;2.20;99.90
11700;DHT22;5906;51.660;6.674;2023-01-19T01:56:12;2.20;99.90
11700;DHT22;5906;51.660;6.674;2023-01-19T01:58:40;2.20;99.90
11700;DHT22;5906;51.660;6.674;2023-01-19T02:01:07;2.20;99.90
11700;DHT22;5906;51.660;6.674;2023-01-19T02:03:55;2.30;99.90
11700;DHT22;5906;51.660;6.674;2023-01-19T02:06:23;2.30;99.90
11700;DHT22;5906;51.660;6.674;2023-01-19T02:09:09;2.20;99.90
11700;DHT22;5906;51.660;6.674;2023-01-19T02:11:55;2.30;99.90
11700;DHT22;5906;51.660;6.674;2023-01-19T02:14:41;2.30;99.90
11700;DHT22;5906;51.660;6.674;2023-01-19T02:17:08;2.40;99.90
11700;DHT22;5906;51.660;6.674;2023-01-19T02:19:40;2.40;99.90
11700;DHT22;5906;51.660;6.674;2023-01-19T02:22:37;2.40;99.90
11700;DHT22;5906;51.660;6.674;2023-01-19T02:25:06;2.40;99.90
11700;DHT22;5906;51.660;6.674;2023-01-19T02:27:33;2.40;99.90
11700;DHT22;5906;51.660;6.674;2023-01-19T02:30:02;2.40;99.90
11700;DHT22;5906;51.660;6.674;2023-01-19T02:32:29;2.40;99.90
11700;DHT22;5906;51.660;6.674;2023-01-19T02:34:56;2.50;99.90
11700;DHT22;5906;51.660;6.674;2023-01-19T02:37:24;2.50;99.90
11700;DHT22;5906;51.660;6.674;2023-01-19T02:39:56;2.40;99.90
11700;DHT22;5906;51.660;6.674;2023-01-19T02:42:32;2.40;99.90
11700;DHT22;5906;51.660;6.674;2023-01-19T02:45:01;2.50;99.90
11700;DHT22;5906;51.660;6.674;2023-01-19T02:47:40;2.50;99.90
11700;DHT22;5906;51.660;6.674;2023-01-19T02:50:33;2.50;99.90
11700;DHT22;5906;51.660;6.674;2023-01-19T02:56:37;2.50;99.90
11700;DHT22;5906;51.660;6.674;2023-01-19T03:07:55;2.50;99.90
11700;DHT22;5906;51.660;6.674;2023-01-19T03:18:41;2.60;99.90
11700;DHT22;5906;51.660;6.674;2023-01-19T03:21:12;2.60;99.90
11700;DHT22;5906;51.660;6.674;2023-01-19T03:23:41;2.70;99.90
11700;DHT22;5906;51.660;6.674;2023-01-19T03:26:12;2.70;99.90
11700;DHT22;5906;51.660;6.674;2023-01-19T03:28:41;2.70;99.90
11700;DHT22;5906;51.660;6.674;2023-01-19T03:31:21;2.60;99.90
11700;DHT22;5906;51.660;6.674;2023-01-19T03:33:53;2.60;99.90
11700;DHT22;5906;51.660;6.674;2023-01-19T03:36:42;2.50;99.90
11700;DHT22;5906;51.660;6.674;2023-01-19T03:39:11;2.50;99.90
11700;DHT22;5906;51.660;6.674;2023-01-19T03:41:40;2.50;99.90
11700;DHT22;5906;51.660;6.674;2023-01-19T03:44:08;2.40;99.90
11700;DHT22;5906;51.660;6.674;2023-01-19T03:46:37;2.20;99.90
11700;DHT22;5906;51.660;6.674;2023-01-19T03:49:04;2.20;99.90
11700;DHT22;5906;51.660;6.674;2023-01-19T03:51:35;2.10;99.90
11700;DHT22;5906;51.660;6.674;2023-01-19T03:54:03;2.10;99.90
11700;DHT22;5906;51.660;6.674;2023-01-19T03:56:31;2.10;99.90
11700;DHT22;5906;51.660;6.674;2023-01-19T03:58:57;2.00;99.90
11700;DHT22;5906;51.660;6.674;2023-01-19T04:01:24;2.00;99.90
11700;DHT22;5906;51.660;6.674;2023-01-19T04:03:51;2.00;99.90
11700;DHT22;5906;51.660;6.674;2023-01-19T04:06:20;2.00;99.90
11700;DHT22;5906;51.660;6.674;2023-01-19T04:08:48;2.00;99.90
11700;DHT22;5906;51.660;6.674;2023-01-19T04:11:15;2.00;99.90
11700;DHT22;5906;51.660;6.674;2023-01-19T04:13:42;2.10;99.90
11700;DHT22;5906;51.660;6.674;2023-01-19T04:16:10;2.00;99.90
11700;DHT22;5906;51.660;6.674;2023-01-19T04:18:37;2.00;99.90
11700;DHT22;5906;51.660;6.674;2023-01-19T04:21:06;2.00;99.90
11700;DHT22;5906;51.660;6.674;2023-01-19T04:23:34;2.00;99.90
11700;DHT22;5906;51.660;6.674;2023-01-19T04:26:03;2.00;99.90
11700;DHT22;5906;51.660;6.674;2023-01-19T04:28:31;1.90;99.90
11700;DHT22;5906;51.660;6.674;2023-01-19T04:30:58;1.90;99.90
11700;DHT22;5906;51.660;6.674;2023-01-19T04:33:26;2.00;99.90
11700;DHT22;5906;51.660;6.674;2023-01-19T04:35:53;2.00;99.90
11700;DHT22;5906;51.660;6.674;2023-01-19T04:38:23;2.00;99.90
11700;DHT22;5906;51.660;6.674;2023-01-19T04:40:51;2.00;99.90
11700;DHT22;5906;51.660;6.674;2023-01-19T04:43:20;2.00;99.90
11700;DHT22;5906;51.660;6.674;2023-01-19T04:45:47;1.90;99.90
11700;DHT22;5906;51.660;6.674;2023-01-19T04:48:15;1.80;99.90
11700;DHT22;5906;51.660;6.674;2023-01-19T04:50:44;1.90;99.90
11700;DHT22;5906;51.660;6.674;2023-01-19T04:53:11;1.90;99.90
11700;DHT22;5906;51.660;6.674;2023-01-19T04:55:39;1.90;99.90
11700;DHT22;5906;51.660;6.674;2023-01-19T04:58:06;1.90;99.90
11700;DHT22;5906;51.660;6.674;2023-01-19T05:00:33;1.90;99.90
11700;DHT22;5906;51.660;6.674;2023-01-19T05:03:00;1.90;99.90
11700;DHT22;5906;51.660;6.674;2023-01-19T05:05:28;1.90;99.90
11700;DHT22;5906;51.660;6.674;2023-01-19T05:07:55;1.90;99.90
11700;DHT22;5906;51.660;6.674;2023-01-19T05:10:21;1.90;99.90
11700;DHT22;5906;51.660;6.674;2023-01-19T05:12:49;1.80;99.90
11700;DHT22;5906;51.660;6.674;2023-01-19T05:15:16;1.90;99.90
11700;DHT22;5906;51.660;6.674;2023-01-19T05:17:43;1.90;99.90
11700;DHT22;5906;51.660;6.674;2023-01-19T05:20:11;1.90;99.90
11700;DHT22;5906;51.660;6.674;2023-01-19T05:22:42;1.80;99.90
11700;DHT22;5906;51.660;6.674;2023-01-19T05:25:08;1.90;99.90
11700;DHT22;5906;51.660;6.674;2023-01-19T05:27:36;1.90;99.90
11700;DHT22;5906;51.660;6.674;2023-01-19T05:30:04;1.90;99.90
11700;DHT22;5906;51.660;6.674;2023-01-19T05:32:32;1.90;99.90
11700;DHT22;5906;51.660;6.674;2023-01-19T05:34:58;1.90;99.90
11700;DHT22;5906;51.660;6.674;2023-01-19T05:37:25;1.90;99.90
11700;DHT22;5906;51.660;6.674;2023-01-19T05:39:52;1.90;99.90
11700;DHT22;5906;51.660;6.674;2023-01-19T05:42:19;1.80;99.90
11700;DHT22;5906;51.660;6.674;2023-01-19T05:44:46;1.80;99.90
11700;DHT22;5906;51.660;6.674;2023-01-19T05:47:13;1.70;99.90
11700;DHT22;5906;51.660;6.674;2023-01-19T05:49:40;1.60;99.90
11700;DHT22;5906;51.660;6.674;2023-01-19T05:52:07;1.70;99.90
11700;DHT22;5906;51.660;6.674;2023-01-19T05:54:33;1.70;99.90
11700;DHT22;5906;51.660;6.674;2023-01-19T05:57:00;1.70;99.90
11700;DHT22;5906;51.660;6.674;2023-01-19T05:59:28;1.60;99.90
11700;DHT22;5906;51.660;6.674;2023-01-19T06:01:55;1.70;99.90
11700;DHT22;5906;51.660;6.674;2023-01-19T06:04:23;1.60;99.90
11700;DHT22;5906;51.660;6.674;2023-01-19T06:06:52;1.60;99.90
11700;DHT22;5906;51.660;6.674;2023-01-19T06:09:19;1.60;99.90
11700;DHT22;5906;51.660;6.674;2023-01-19T06:11:46;1.60;99.90
11700;DHT22;5906;51.660;6.674;2023-01-19T06:14:13;1.60;99.90
11700;DHT22;5906;51.660;6.674;2023-01-19T06:16:40;1.60;99.90
11700;DHT22;5906;51.660;6.674;2023-01-19T06:19:06;1.60;99.90
11700;DHT22;5906;51.660;6.674;2023-01-19T06:21:33;1.70;99.90
11700;DHT22;5906;51.660;6.674;2023-01-19T06:24:00;1.70;99.90
11700;DHT22;5906;51.660;6.674;2023-01-19T06:26:27;1.70;99.90
11700;DHT22;5906;51.660;6.674;2023-01-19T06:28:53;1.70;99.90
11700;DHT22;5906;51.660;6.674;2023-01-19T06:31:21;1.70;99.90
11700;DHT22;5906;51.660;6.674;2023-01-19T06:33:47;1.80;99.90
11700;DHT22;5906;51.660;6.674;2023-01-19T06:36:15;1.70;99.90
11700;DHT22;5906;51.660;6.674;2023-01-19T06:38:42;1.80;99.90
11700;DHT22;5906;51.660;6.674;2023-01-19T06:41:08;1.80;99.90
11700;DHT22;5906;51.660;6.674;2023-01-19T06:43:35;1.80;99.90
11700;DHT22;5906;51.660;6.674;2023-01-19T06:46:02;1.80;99.90
11700;DHT22;5906;51.660;6.674;2023-01-19T06:48:30;1.90;99.90
11700;DHT22;5906;51.660;6.674;2023-01-19T06:50:57;1.90;99.90
11700;DHT22;5906;51.660;6.674;2023-01-19T06:53:25;2.00;99.90
11700;DHT22;5906;51.660;6.674;2023-01-19T06:56:00;2.00;99.90
11700;DHT22;5906;51.660;6.674;2023-01-19T06:58:28;1.90;99.90
11700;DHT22;5906;51.660;6.674;2023-01-19T07:00:57;2.00;99.90
11700;DHT22;5906;51.660;6.674;2023-01-19T07:03:27;2.00;99.90
11700;DHT22;5906;51.660;6.674;2023-01-19T07:05:54;1.90;99.90
11700;DHT22;5906;51.660;6.674;2023-01-19T07:08:22;1.90;99.90
11700;DHT22;5906;51.660;6.674;2023-01-19T07:10:49;2.00;99.90
11700;DHT22;5906;51.660;6.674;2023-01-19T07:13:38;1.90;99.90
11700;DHT22;5906;51.660;6.674;2023-01-19T07:16:12;1.90;99.90
11700;DHT22;5906;51.660;6.674;2023-01-19T07:18:39;1.90;99.90
11700;DHT22;5906;51.660;6.674;2023-01-19T07:21:06;2.00;99.90
11700;DHT22;5906;51.660;6.674;2023-01-19T07:23:33;2.00;99.90
11700;DHT22;5906;51.660;6.674;2023-01-19T07:26:01;2.00;99.90
11700;DHT22;5906;51.660;6.674;2023-01-19T07:28:28;2.00;99.90
11700;DHT22;5906;51.660;6.674;2023-01-19T07:30:56;2.00;99.90
11700;DHT22;5906;51.660;6.674;2023-01-19T07:33:23;2.00;99.90
11700;DHT22;5906;51.660;6.674;2023-01-19T07:35:52;2.00;99.90
11700;DHT22;5906;51.660;6.674;2023-01-19T07:38:19;2.10;99.90
11700;DHT22;5906;51.660;6.674;2023-01-19T07:40:46;2.00;99.90
11700;DHT22;5906;51.660;6.674;2023-01-19T07:43:13;2.00;99.90
11700;DHT22;5906;51.660;6.674;2023-01-19T07:45:41;2.10;99.90
11700;DHT22;5906;51.660;6.674;2023-01-19T07:48:08;2.10;99.90
11700;DHT22;5906;51.660;6.674;2023-01-19T07:50:35;2.10;99.90
11700;DHT22;5906;51.660;6.674;2023-01-19T07:53:06;2.10;99.90
11700;DHT22;5906;51.660;6.674;2023-01-19T07:55:34;2.20;99.90
11700;DHT22;5906;51.660;6.674;2023-01-19T07:58:01;2.20;99.90
11700;DHT22;5906;51.660;6.674;2023-01-19T08:00:32;2.20;99.90
11700;DHT22;5906;51.660;6.674;2023-01-19T08:03:01;2.30;99.90
11700;DHT22;5906;51.660;6.674;2023-01-19T08:05:30;2.30;99.90
11700;DHT22;5906;51.660;6.674;2023-01-19T08:07:58;2.20;99.90
11700;DHT22;5906;51.660;6.674;2023-01-19T08:10:26;2.30;99.90
11700;DHT22;5906;51.660;6.674;2023-01-19T08:12:54;2.30;99.90
11700;DHT22;5906;51.660;6.674;2023-01-19T08:15:40;2.30;99.90
11700;DHT22;5906;51.660;6.674;2023-01-19T08:18:27;2.30;99.90
11700;DHT22;5906;51.660;6.674;2023-01-19T08:21:14;2.30;99.90
11700;DHT22;5906;51.660;6.674;2023-01-19T08:24:02;2.40;99.90
11700;DHT22;5906;51.660;6.674;2023-01-19T08:26:54;2.30;99.90
11700;DHT22;5906;51.660;6.674;2023-01-19T08:29:23;2.40;99.90
11700;DHT22;5906;51.660;6.674;2023-01-19T08:31:49;2.40;99.90
11700;DHT22;5906;51.660;6.674;2023-01-19T08:34:17;2.40;99.90
11700;DHT22;5906;51.660;6.674;2023-01-19T08:36:43;2.40;99.90
11700;DHT22;5906;51.660;6.674;2023-01-19T08:39:10;2.50;99.90
11700;DHT22;5906;51.660;6.674;2023-01-19T08:41:40;2.40;99.90
11700;DHT22;5906;51.660;6.674;2023-01-19T08:44:07;2.40;99.90
11700;DHT22;5906;51.660;6.674;2023-01-19T08:46:33;2.50;99.90
11700;DHT22;5906;51.660;6.674;2023-01-19T08:49:00;2.50;99.90
11700;DHT22;5906;51.660;6.674;2023-01-19T08:51:27;2.50;99.90
11700;DHT22;5906;51.660;6.674;2023-01-19T08:53:54;2.50;99.90
11700;DHT22;5906;51.660;6.674;2023-01-19T08:56:21;2.50;99.90
11700;DHT22;5906;51.660;6.674;2023-01-19T08:58:48;2.60;99.90
11700;DHT22;5906;51.660;6.674;2023-01-19T09:01:33;2.50;99.90
11700;DHT22;5906;51.660;6.674;2023-01-19T09:03:59;2.60;99.90
11700;DHT22;5906;51.660;6.674;2023-01-19T09:06:27;2.60;99.90
11700;DHT22;5906;51.660;6.674;2023-01-19T09:08:53;2.50;99.90
11700;DHT22;5906;51.660;6.674;2023-01-19T09:11:20;2.60;99.90
11700;DHT22;5906;51.660;6.674;2023-01-19T09:13:47;2.60;99.90
11700;DHT22;5906;51.660;6.674;2023-01-19T09:16:14;2.60;99.90
11700;DHT22;5906;51.660;6.674;2023-01-19T09:18:41;2.60;99.90
11700;DHT22;5906;51.660;6.674;2023-01-19T09:21:08;2.70;99.90
11700;DHT22;5906;51.660;6.674;2023-01-19T09:23:35;2.70;99.90
11700;DHT22;5906;51.660;6.674;2023-01-19T09:26:03;2.60;99.90
11700;DHT22;5906;51.660;6.674;2023-01-19T09:28:31;2.70;99.90
11700;DHT22;5906;51.660;6.674;2023-01-19T09:31:02;2.80;99.90
11700;DHT22;5906;51.660;6.674;2023-01-19T09:33:29;2.80;99.90
11700;DHT22;5906;51.660;6.674;2023-01-19T09:35:56;2.80;99.90
11700;DHT22;5906;51.660;6.674;2023-01-19T09:38:23;2.80;99.90
11700;DHT22;5906;51.660;6.674;2023-01-19T09:40:54;2.80;99.90
11700;DHT22;5906;51.660;6.674;2023-01-19T09:43:39;2.80;99.90
11700;DHT22;5906;51.660;6.674;2023-01-19T09:46:13;2.80;99.90
11700;DHT22;5906;51.660;6.674;2023-01-19T09:51:23;2.90;99.90
11700;DHT22;5906;51.660;6.674;2023-01-19T09:56:41;2.90;99.90
11700;DHT22;5906;51.660;6.674;2023-01-19T09:59:25;3.00;99.90
11700;DHT22;5906;51.660;6.674;2023-01-19T10:04:59;3.20;99.90
11700;DHT22;5906;51.660;6.674;2023-01-19T10:10:31;3.20;99.90
11700;DHT22;5906;51.660;6.674;2023-01-19T10:13:18;3.20;99.90
11700;DHT22;5906;51.660;6.674;2023-01-19T10:18:46;3.20;99.90
11700;DHT22;5906;51.660;6.674;2023-01-19T10:21:37;3.30;99.90
11700;DHT22;5906;51.660;6.674;2023-01-19T10:24:14;3.30;99.90
11700;DHT22;5906;51.660;6.674;2023-01-19T10:26:49;3.30;99.90
11700;DHT22;5906;51.660;6.674;2023-01-19T10:31:45;3.40;99.90
11700;DHT22;5906;51.660;6.674;2023-01-19T10:34:12;3.50;99.90
11700;DHT22;5906;51.660;6.674;2023-01-19T10:36:55;3.60;99.90
11700;DHT22;5906;51.660;6.674;2023-01-19T10:39:23;3.70;99.90
11700;DHT22;5906;51.660;6.674;2023-01-19T10:41:52;3.70;99.90
11700;DHT22;5906;51.660;6.674;2023-01-19T10:44:34;3.70;99.90
11700;DHT22;5906;51.660;6.674;2023-01-19T10:47:04;3.70;99.90
11700;DHT22;5906;51.660;6.674;2023-01-19T10:49:37;3.70;99.90
11700;DHT22;5906;51.660;6.674;2023-01-19T10:52:06;3.70;99.90
11700;DHT22;5906;51.660;6.674;2023-01-19T10:54:35;3.70;99.90
11700;DHT22;5906;51.660;6.674;2023-01-19T10:57:06;3.70;99.90
11700;DHT22;5906;51.660;6.674;2023-01-19T10:59:46;3.70;99.90
11700;DHT22;5906;51.660;6.674;2023-01-19T11:02:24;3.80;99.90
11700;DHT22;5906;51.660;6.674;2023-01-19T11:05:32;3.80;99.90
11700;DHT22;5906;51.660;6.674;2023-01-19T11:07:52;3.80;99.90
11700;DHT22;5906;51.660;6.674;2023-01-19T11:10:24;3.80;99.90
11700;DHT22;5906;51.660;6.674;2023-01-19T11:12:58;3.80;99.90
11700;DHT22;5906;51.660;6.674;2023-01-19T11:15:31;3.80;99.90
11700;DHT22;5906;51.660;6.674;2023-01-19T11:17:58;3.80;99.90
11700;DHT22;5906;51.660;6.674;2023-01-19T11:20:50;3.80;99.90
11700;DHT22;5906;51.660;6.674;2023-01-19T11:23:25;3.90;99.90
11700;DHT22;5906;51.660;6.674;2023-01-19T11:25:55;3.90;99.90
11700;DHT22;5906;51.660;6.674;2023-01-19T11:28:36;3.90;99.90
11700;DHT22;5906;51.660;6.674;2023-01-19T11:38:51;3.80;99.90
11700;DHT22;5906;51.660;6.674;2023-01-19T11:43:53;3.90;99.90
11700;DHT22;5906;51.660;6.674;2023-01-19T11:46:23;3.90;99.90
11700;DHT22;5906;51.660;6.674;2023-01-19T11:48:55;3.90;99.90
11700;DHT22;5906;51.660;6.674;2023-01-19T11:51:33;4.00;99.90
11700;DHT22;5906;51.660;6.674;2023-01-19T11:54:04;4.00;99.90
11700;DHT22;5906;51.660;6.674;2023-01-19T11:56:31;3.90;99.90
11700;DHT22;5906;51.660;6.674;2023-01-19T11:58:58;3.90;99.90
11700;DHT22;5906;51.660;6.674;2023-01-19T12:01:33;3.80;99.90
11700;DHT22;5906;51.660;6.674;2023-01-19T12:04:45;3.90;99.90
11700;DHT22;5906;51.660;6.674;2023-01-19T12:07:07;3.90;99.90
11700;DHT22;5906;51.660;6.674;2023-01-19T12:09:48;3.90;99.90
11700;DHT22;5906;51.660;6.674;2023-01-19T12:12:32;3.80;99.90
11700;DHT22;5906;51.660;6.674;2023-01-19T12:15:18;3.80;99.90
11700;DHT22;5906;51.660;6.674;2023-01-19T12:17:50;3.80;99.90
11700;DHT22;5906;51.660;6.674;2023-01-19T12:20:24;3.90;99.90
11700;DHT22;5906;51.660;6.674;2023-01-19T12:25:58;3.90;99.90
11700;DHT22;5906;51.660;6.674;2023-01-19T12:28:30;4.10;99.90
11700;DHT22;5906;51.660;6.674;2023-01-19T12:30:59;4.10;99.90
11700;DHT22;5906;51.660;6.674;2023-01-19T12:33:35;4.20;99.90
11700;DHT22;5906;51.660;6.674;2023-01-19T12:41:29;4.20;99.90
11700;DHT22;5906;51.660;6.674;2023-01-19T12:49:25;4.30;99.90
11700;DHT22;5906;51.660;6.674;2023-01-19T12:55:05;4.30;99.90
11700;DHT22;5906;51.660;6.674;2023-01-19T12:57:49;4.30;99.90
11700;DHT22;5906;51.660;6.674;2023-01-19T13:02:55;4.20;99.90
11700;DHT22;5906;51.660;6.674;2023-01-19T13:10:51;4.30;99.90
11700;DHT22;5906;51.660;6.674;2023-01-19T13:13:23;4.50;99.90
11700;DHT22;5906;51.660;6.674;2023-01-19T13:15:52;4.60;99.90
11700;DHT22;5906;51.660;6.674;2023-01-19T13:18:32;4.60;99.90
11700;DHT22;5906;51.660;6.674;2023-01-19T13:21:06;4.70;99.90
11700;DHT22;5906;51.660;6.674;2023-01-19T13:23:55;4.60;99.90
11700;DHT22;5906;51.660;6.674;2023-01-19T13:26:25;4.70;99.90
11700;DHT22;5906;51.660;6.674;2023-01-19T13:29:04;4.70;99.90
11700;DHT22;5906;51.660;6.674;2023-01-19T13:31:37;4.70;99.90
11700;DHT22;5906;51.660;6.674;2023-01-19T13:34:11;4.70;99.90
11700;DHT22;5906;51.660;6.674;2023-01-19T13:36:43;4.70;99.90
11700;DHT22;5906;51.660;6.674;2023-01-19T13:39:17;4.70;99.90
11700;DHT22;5906;51.660;6.674;2023-01-19T13:41:46;4.70;99.90
11700;DHT22;5906;51.660;6.674;2023-01-19T13:44:48;4.70;99.90
11700;DHT22;5906;51.660;6.674;2023-01-19T13:47:14;4.80;99.90
11700;DHT22;5906;51.660;6.674;2023-01-19T13:49:45;4.90;99.90
11700;DHT22;5906;51.660;6.674;2023-01-19T13:52:20;4.90;99.90
11700;DHT22;5906;51.660;6.674;2023-01-19T13:54:51;4.80;99.90
11700;DHT22;5906;51.660;6.674;2023-01-19T14:00:09;4.90;99.90
11700;DHT22;5906;51.660;6.674;2023-01-19T14:10:35;4.80;99.90
11700;DHT22;5906;51.660;6.674;2023-01-19T14:13:22;4.80;99.90
11700;DHT22;5906;51.660;6.674;2023-01-19T14:15:57;4.90;99.90
11700;DHT22;5906;51.660;6.674;2023-01-19T14:18:34;4.80;99.90
11700;DHT22;5906;51.660;6.674;2023-01-19T14:29:30;4.80;99.90
11700;DHT22;5906;51.660;6.674;2023-01-19T14:32:16;4.70;99.90
11700;DHT22;5906;51.660;6.674;2023-01-19T14:37:34;4.80;99.90
11700;DHT22;5906;51.660;6.674;2023-01-19T14:42:56;4.80;99.90
11700;DHT22;5906;51.660;6.674;2023-01-19T14:45:38;4.80;99.90
11700;DHT22;5906;51.660;6.674;2023-01-19T14:48:18;4.80;99.90
11700;DHT22;5906;51.660;6.674;2023-01-19T14:50:47;4.70;99.90
11700;DHT22;5906;51.660;6.674;2023-01-19T14:53:36;4.60;99.90
11700;DHT22;5906;51.660;6.674;2023-01-19T14:56:05;4.50;99.90
11700;DHT22;5906;51.660;6.674;2023-01-19T14:58:34;4.60;99.90
11700;DHT22;5906;51.660;6.674;2023-01-19T15:01:01;4.50;99.90
11700;DHT22;5906;51.660;6.674;2023-01-19T15:03:29;4.60;99.90
11700;DHT22;5906;51.660;6.674;2023-01-19T15:06:16;4.50;99.90
11700;DHT22;5906;51.660;6.674;2023-01-19T15:08:44;4.40;99.90
11700;DHT22;5906;51.660;6.674;2023-01-19T15:13:47;4.30;99.90
11700;DHT22;5906;51.660;6.674;2023-01-19T15:16:14;4.30;99.90
11700;DHT22;5906;51.660;6.674;2023-01-19T15:18:42;4.20;99.90
11700;DHT22;5906;51.660;6.674;2023-01-19T15:21:19;4.10;99.90
11700;DHT22;5906;51.660;6.674;2023-01-19T15:23:49;4.10;99.90
11700;DHT22;5906;51.660;6.674;2023-01-19T15:26:18;4.00;99.90
11700;DHT22;5906;51.660;6.674;2023-01-19T15:28:47;3.90;99.90
11700;DHT22;5906;51.660;6.674;2023-01-19T15:31:22;3.90;99.90
11700;DHT22;5906;51.660;6.674;2023-01-19T15:33:50;3.80;99.90
11700;DHT22;5906;51.660;6.674;2023-01-19T15:36:19;3.70;99.90
11700;DHT22;5906;51.660;6.674;2023-01-19T15:38:47;3.60;99.90
11700;DHT22;5906;51.660;6.674;2023-01-19T15:41:27;3.50;99.90
11700;DHT22;5906;51.660;6.674;2023-01-19T15:43:56;3.40;99.90
11700;DHT22;5906;51.660;6.674;2023-01-19T15:46:23;3.30;99.90
11700;DHT22;5906;51.660;6.674;2023-01-19T15:48:52;3.30;99.90
11700;DHT22;5906;51.660;6.674;2023-01-19T15:51:24;3.20;99.90
11700;DHT22;5906;51.660;6.674;2023-01-19T15:53:52;3.30;99.90
11700;DHT22;5906;51.660;6.674;2023-01-19T15:56:28;3.20;99.90
11700;DHT22;5906;51.660;6.674;2023-01-19T15:58:56;3.10;99.90
11700;DHT22;5906;51.660;6.674;2023-01-19T16:01:26;3.10;99.90
11700;DHT22;5906;51.660;6.674;2023-01-19T16:03:58;3.00;99.90
11700;DHT22;5906;51.660;6.674;2023-01-19T16:06:27;2.90;99.90
11700;DHT22;5906;51.660;6.674;2023-01-19T16:08:55;2.80;99.90
11700;DHT22;5906;51.660;6.674;2023-01-19T16:11:26;2.80;99.90
11700;DHT22;5906;51.660;6.674;2023-01-19T16:13:54;2.70;99.90
11700;DHT22;5906;51.660;6.674;2023-01-19T16:16:23;2.70;99.90
11700;DHT22;5906;51.660;6.674;2023-01-19T16:18:51;2.70;99.90
11700;DHT22;5906;51.660;6.674;2023-01-19T16:21:18;2.60;99.90
11700;DHT22;5906;51.660;6.674;2023-01-19T16:23:45;2.50;99.90
11700;DHT22;5906;51.660;6.674;2023-01-19T16:26:28;2.50;99.90
11700;DHT22;5906;51.660;6.674;2023-01-19T16:29:01;2.50;99.90
11700;DHT22;5906;51.660;6.674;2023-01-19T16:31:28;2.40;99.90
11700;DHT22;5906;51.660;6.674;2023-01-19T16:34:02;2.40;99.90
11700;DHT22;5906;51.660;6.674;2023-01-19T16:36:31;2.40;99.90
11700;DHT22;5906;51.660;6.674;2023-01-19T16:39:05;2.40;99.90
11700;DHT22;5906;51.660;6.674;2023-01-19T16:41:33;2.40;99.90
11700;DHT22;5906;51.660;6.674;2023-01-19T16:44:01;2.40;99.90
11700;DHT22;5906;51.660;6.674;2023-01-19T16:46:30;2.50;99.90
11700;DHT22;5906;51.660;6.674;2023-01-19T16:49:05;2.40;99.90
11700;DHT22;5906;51.660;6.674;2023-01-19T16:51:38;2.30;99.90
11700;DHT22;5906;51.660;6.674;2023-01-19T16:54:05;2.30;99.90
11700;DHT22;5906;51.660;6.674;2023-01-19T16:56:32;2.30;99.90
11700;DHT22;5906;51.660;6.674;2023-01-19T16:58:59;2.30;99.90
11700;DHT22;5906;51.660;6.674;2023-01-19T17:01:27;2.30;99.90
11700;DHT22;5906;51.660;6.674;2023-01-19T17:03:55;2.30;99.90
11700;DHT22;5906;51.660;6.674;2023-01-19T17:06:23;2.40;99.90
11700;DHT22;5906;51.660;6.674;2023-01-19T17:08:51;2.40;99.90
11700;DHT22;5906;51.660;6.674;2023-01-19T17:11:22;2.40;99.90
11700;DHT22;5906;51.660;6.674;2023-01-19T17:13:57;2.40;99.90
11700;DHT22;5906;51.660;6.674;2023-01-19T17:16:29;2.50;99.90
11700;DHT22;5906;51.660;6.674;2023-01-19T17:19:00;2.50;99.90
11700;DHT22;5906;51.660;6.674;2023-01-19T17:21:27;2.40;99.90
11700;DHT22;5906;51.660;6.674;2023-01-19T17:23:55;2.40;99.90
11700;DHT22;5906;51.660;6.674;2023-01-19T17:26:24;2.30;99.90
11700;DHT22;5906;51.660;6.674;2023-01-19T17:28:51;2.20;99.90
11700;DHT22;5906;51.660;6.674;2023-01-19T17:31:23;2.30;99.90
11700;DHT22;5906;51.660;6.674;2023-01-19T17:33:50;2.30;99.90
11700;DHT22;5906;51.660;6.674;2023-01-19T17:36:19;2.30;99.90
11700;DHT22;5906;51.660;6.674;2023-01-19T17:38:48;2.30;99.90
11700;DHT22;5906;51.660;6.674;2023-01-19T17:41:27;2.40;99.90
11700;DHT22;5906;51.660;6.674;2023-01-19T17:43:54;2.40;99.90
11700;DHT22;5906;51.660;6.674;2023-01-19T17:46:24;2.40;99.90
11700;DHT22;5906;51.660;6.674;2023-01-19T17:48:59;2.50;99.90
11700;DHT22;5906;51.660;6.674;2023-01-19T17:51:30;2.50;99.90
11700;DHT22;5906;51.660;6.674;2023-01-19T17:53:58;2.40;99.90
11700;DHT22;5906;51.660;6.674;2023-01-19T17:56:28;2.40;99.90
11700;DHT22;5906;51.660;6.674;2023-01-19T17:58:56;2.40;99.90
11700;DHT22;5906;51.660;6.674;2023-01-19T18:01:26;2.40;99.90
11700;DHT22;5906;51.660;6.674;2023-01-19T18:03:55;2.40;99.90
11700;DHT22;5906;51.660;6.674;2023-01-19T18:06:22;2.40;99.90
11700;DHT22;5906;51.660;6.674;2023-01-19T18:08:49;2.40;99.90
11700;DHT22;5906;51.660;6.674;2023-01-19T18:11:18;2.40;99.90